Time;durP1;ratioP1;P1;durP2;ratioP2;P2;SDS_P1;SDS_P2;PMS_P1;PMS_P2;Temp;Humidity;BMP_temperature;BMP_pressure;BME280_temperature;BME280_humidity;BME280_pressure;Samples;Min_cycle;Max_cycle;Signal;HPM_P1;HPM_P2
2021/04/16 05:56:24;;;;;;;3.65;2.45;;;;;;;;;;10498725;28;20375;-88
2021/04/16 06:01:25;;;;;;;4.65;3.15;;;;;;;;;;10497077;28;20037;-88
2021/04/16 06:06:28;;;;;;;3.17;2.28;;;;;;;;;;10496048;28;20067;-88
2021/04/16 06:11:29;;;;;;;5.03;2.50;;;;;;;;;;10496224;28;20454;-88
2021/04/16 06:16:30;;;;;;;2.60;2.05;;;;;;;;;;10496427;28;20024;-86
2021/04/16 06:21:31;;;;;;;3.22;2.03;;;;;;;;;;10495248;28;20029;-86
2021/04/16 06:26:32;;;;;;;4.57;3.92;;;;;;;;;;10494444;28;20112;-85
2021/04/16 06:31:33;;;;;;;3.28;2.20;;;;;;;;;;10493886;28;20060;-86
2021/04/16 06:36:34;;;;;;;2.97;1.90;;;;;;;;;;10494258;28;20494;-85
2021/04/16 06:41:49;;;;;;;2.42;2.13;;;;;;;;;;10494410;28;20128;-85
2021/04/16 06:46:56;;;;;;;5.40;3.60;;;;;;;;;;10493464;28;20138;-86
2021/04/16 06:52:15;;;;;;;3.42;2.55;;;;;;;;;;10493524;28;20079;-86
2021/04/16 06:57:23;;;;;;;2.42;1.50;;;;;;;;;;10492929;28;20218;-86
2021/04/16 07:02:35;;;;;;;3.45;1.70;;;;;;;;;;10504040;28;20376;-85
2021/04/16 07:07:39;;;;;;;4.95;1.35;;;;;;;;;;10481224;28;20029;-86
2021/04/16 07:12:41;;;;;;;3.65;1.73;;;;;;;;;;10486350;28;20021;-87
2021/04/16 07:17:44;;;;;;;5.25;2.00;;;;;;;;;;10487895;28;20039;-86
2021/04/16 07:22:50;;;;;;;3.28;2.53;;;;;;;;;;10499454;28;20040;-85
2021/04/16 07:27:53;;;;;;;3.35;1.80;;;;;;;;;;10492768;28;20021;-85
2021/04/16 07:32:54;;;;;;;2.22;1.73;;;;;;;;;;10480563;28;20473;-84
2021/04/16 07:38:14;;;;;;;3.22;1.75;;;;;;;;;;10479871;28;20021;-85
2021/04/16 07:43:34;;;;;;;3.13;2.38;;;;;;;;;;10479103;28;20075;-85
2021/04/16 07:48:36;;;;;;;3.90;1.92;;;;;;;;;;10473874;28;20028;-85
2021/04/16 07:53:49;;;;;;;2.83;2.38;;;;;;;;;;10473533;28;20040;-84
2021/04/16 07:59:10;;;;;;;5.63;2.80;;;;;;;;;;10473878;28;20037;-85
2021/04/16 08:04:30;;;;;;;2.10;1.65;;;;;;;;;;10472420;28;20108;-84
2021/04/16 08:09:35;;;;;;;3.58;1.90;;;;;;;;;;10473931;28;20136;-84
2021/04/16 08:14:44;;;;;;;2.20;2.00;;;;;;;;;;10472255;28;20398;-84
2021/04/16 08:19:45;;;;;;;2.77;1.87;;;;;;;;;;10473267;28;20120;-84
2021/04/16 08:24:55;;;;;;;1.92;1.30;;;;;;;;;;10471973;28;20029;-85
2021/04/16 08:30:03;;;;;;;2.20;1.73;;;;;;;;;;10484607;28;20025;-84
2021/04/16 08:35:07;;;;;;;3.28;1.70;;;;;;;;;;10477912;28;20283;-84
2021/04/16 08:40:11;;;;;;;2.72;1.48;;;;;;;;;;10478176;28;20101;-86
2021/04/16 08:45:17;;;;;;;1.70;1.25;;;;;;;;;;10475815;28;20037;-84
2021/04/16 08:50:18;;;;;;;2.10;1.40;;;;;;;;;;10470099;28;20108;-85
2021/04/16 08:55:26;;;;;;;2.38;1.23;;;;;;;;;;10469171;28;20033;-84
2021/04/16 09:00:33;;;;;;;4.55;1.00;;;;;;;;;;10469012;28;20088;-85
2021/04/16 09:05:36;;;;;;;1.92;1.10;;;;;;;;;;10468662;28;20044;-84
2021/04/16 09:10:57;;;;;;;2.47;1.38;;;;;;;;;;10467101;28;20033;-85
2021/04/16 09:16:23;;;;;;;2.10;1.20;;;;;;;;;;10465312;28;20033;-86
2021/04/16 09:21:32;;;;;;;1.10;0.90;;;;;;;;;;10465144;28;20162;-85
2021/04/16 09:26:51;;;;;;;2.20;1.23;;;;;;;;;;10466429;28;20033;-85
2021/04/16 09:31:52;;;;;;;1.52;0.80;;;;;;;;;;10463009;28;20025;-85
2021/04/16 09:37:12;;;;;;;2.05;1.50;;;;;;;;;;10465346;28;20033;-86
2021/04/16 09:48:38;;;;;;;2.75;1.63;;;;;;;;;;10479073;28;20039;-84
2021/04/16 09:53:42;;;;;;;3.53;1.65;;;;;;;;;;10462828;28;20045;-83
2021/04/16 09:59:00;;;;;;;4.00;1.30;;;;;;;;;;10476734;28;20021;-85
2021/04/16 10:04:21;;;;;;;2.17;1.27;;;;;;;;;;10469765;28;20025;-83
2021/04/16 10:09:30;;;;;;;2.25;1.30;;;;;;;;;;10471656;28;20053;-83
2021/04/16 10:14:55;;;;;;;2.90;1.90;;;;;;;;;;10472510;28;20052;-83
2021/04/16 10:20:05;;;;;;;3.78;1.35;;;;;;;;;;10467551;28;20460;-84
2021/04/16 10:42:55;;;;;;;2.03;1.00;;;;;;;;;;10478543;28;20017;-85
2021/04/16 11:29:14;;;;;;;2.78;1.50;;;;;;;;;;10470682;28;20029;-83
2021/04/16 12:39:31;;;;;;;2.08;1.20;;;;;;;;;;10430868;28;20026;-85
2021/04/16 12:44:38;;;;;;;2.50;1.80;;;;;;;;;;10429371;28;20103;-85
2021/04/16 12:49:43;;;;;;;2.22;1.80;;;;;;;;;;10427257;28;20025;-85
2021/04/16 12:54:59;;;;;;;2.05;1.30;;;;;;;;;;10425704;28;20041;-86
2021/04/16 13:00:07;;;;;;;2.53;1.63;;;;;;;;;;10426799;28;20033;-87
2021/04/16 13:05:31;;;;;;;2.10;1.83;;;;;;;;;;10426348;28;20033;-87
2021/04/16 13:10:32;;;;;;;1.98;1.35;;;;;;;;;;10426864;28;20029;-85
2021/04/16 13:15:36;;;;;;;2.08;1.50;;;;;;;;;;10425264;28;20021;-86
2021/04/16 13:20:50;;;;;;;2.75;1.33;;;;;;;;;;10451965;28;20517;-86
2021/04/16 13:25:51;;;;;;;2.03;1.40;;;;;;;;;;10464442;28;20032;-84
2021/04/16 13:30:52;;;;;;;2.70;1.75;;;;;;;;;;10467008;28;20032;-86
2021/04/16 13:36:02;;;;;;;2.33;0.90;;;;;;;;;;10466903;28;20382;-89
2021/04/16 13:41:06;;;;;;;2.42;1.52;;;;;;;;;;10467111;28;20059;-85
2021/04/16 13:46:08;;;;;;;3.10;1.92;;;;;;;;;;10465053;28;20032;-86
2021/04/16 13:51:21;;;;;;;3.15;1.40;;;;;;;;;;10467170;28;20021;-86
2021/04/16 13:56:48;;;;;;;2.30;2.03;;;;;;;;;;10469725;28;20033;-86
2021/04/16 14:02:24;;;;;;;;;;;;;;;;;;;;;
2021/04/16 14:07:40;;;;;;;3.97;1.77;;;;;;;;;;10471434;28;20037;-89
2021/04/16 14:18:42;;;;;;;1.23;1.10;;;;;;;;;;10500186;28;20037;-85
2021/04/16 14:23:52;;;;;;;1.73;1.10;;;;;;;;;;10492312;28;20024;-86
2021/04/16 14:29:02;;;;;;;;;;;;;;;;;;10478377;28;20031;-86
2021/04/16 14:39:47;;;;;;;3.05;1.17;;;;;;;;;;10494411;28;20108;-86
2021/04/16 14:51:06;;;;;;;;;;;;;;;;;;;;;
2021/04/16 14:56:11;;;;;;;2.42;1.73;;;;;;;;;;10328977;22;20050;-84
2021/04/16 15:01:13;;;;;;;1.30;0.90;;;;;;;;;;10369810;28;20357;-85
2021/04/16 15:06:19;;;;;;;2.25;1.30;;;;;;;;;;10379382;28;20094;-84
2021/04/16 15:11:56;;;;;;;2.28;2.08;;;;;;;;;;10367937;28;20041;-85
2021/04/16 15:17:17;;;;;;;3.05;1.67;;;;;;;;;;10361889;28;20137;-85
2021/04/16 15:22:34;;;;;;;1.50;0.93;;;;;;;;;;10353923;28;20046;-84
2021/04/16 15:27:42;;;;;;;3.08;1.30;;;;;;;;;;10357619;28;20029;-84
2021/04/16 15:32:44;;;;;;;2.78;2.25;;;;;;;;;;10352139;28;20523;-87
2021/04/16 15:48:24;;;;;;;;;;;;;;;;;;10354259;28;19906;-85
2021/04/16 15:53:30;;;;;;;2.25;1.60;;;;;;;;;;10351206;28;19910;-87
2021/04/16 15:58:33;;;;;;;2.60;1.70;;;;;;;;;;10351103;28;20034;-85
2021/04/16 16:03:34;;;;;;;5.78;2.05;;;;;;;;;;10351882;28;20094;-85
2021/04/16 16:08:36;;;;;;;2.45;1.25;;;;;;;;;;10353489;28;20037;-85
2021/04/16 16:13:42;;;;;;;2.45;1.88;;;;;;;;;;10354448;28;20037;-87
2021/04/16 16:18:49;;;;;;;3.17;1.70;;;;;;;;;;10359019;28;20053;-86
2021/04/16 16:23:51;;;;;;;3.78;2.13;;;;;;;;;;10352104;28;20030;-84
2021/04/16 16:28:56;;;;;;;3.05;1.30;;;;;;;;;;10340536;28;20041;-84
2021/04/16 16:34:34;;;;;;;;;;;;;;;;;;;;;
2021/04/16 16:40:05;;;;;;;3.15;2.20;;;;;;;;;;10357492;28;20061;-86
2021/04/16 16:45:12;;;;;;;3.33;1.70;;;;;;;;;;10351411;28;20435;-86
2021/04/16 16:56:09;;;;;;;2.72;2.33;;;;;;;;;;10358804;28;20385;-86
2021/04/16 17:01:14;;;;;;;3.65;1.85;;;;;;;;;;10355834;28;20109;-86
2021/04/16 17:06:16;;;;;;;3.40;1.90;;;;;;;;;;10352091;28;20114;-86
2021/04/16 17:11:45;;;;;;;2.83;1.88;;;;;;;;;;10361952;28;20121;-86
2021/04/16 17:16:55;;;;;;;2.77;2.37;;;;;;;;;;10350756;28;20061;-86
2021/04/16 17:22:14;;;;;;;3.75;2.00;;;;;;;;;;10355493;28;20115;-87
2021/04/16 17:27:35;;;;;;;3.30;2.13;;;;;;;;;;10358689;28;20030;-86
2021/04/16 17:32:42;;;;;;;2.65;1.67;;;;;;;;;;10359665;28;20054;-85
2021/04/16 17:37:55;;;;;;;3.25;1.80;;;;;;;;;;10373742;28;20010;-86
2021/04/16 17:43:19;;;;;;;3.38;1.90;;;;;;;;;;10373421;28;20042;-86
2021/04/16 17:48:22;;;;;;;3.08;2.10;;;;;;;;;;10353668;28;20101;-86
2021/04/16 17:53:24;;;;;;;3.33;1.63;;;;;;;;;;10354435;28;20027;-87
2021/04/16 17:58:29;;;;;;;3.30;2.20;;;;;;;;;;10358003;28;20094;-87
2021/04/16 18:03:37;;;;;;;3.67;2.00;;;;;;;;;;10350566;28;20034;-86
2021/04/16 18:08:48;;;;;;;2.10;1.77;;;;;;;;;;10352196;28;20034;-86
2021/04/16 18:13:53;;;;;;;3.17;1.92;;;;;;;;;;10351800;28;20026;-87
2021/04/16 18:19:01;;;;;;;3.35;2.10;;;;;;;;;;10352703;28;20540;-87
2021/04/16 18:24:33;;;;;;;3.85;1.80;;;;;;;;;;10350949;28;20373;-85
2021/04/16 18:29:41;;;;;;;2.20;1.85;;;;;;;;;;10356075;28;20062;-86
2021/04/16 18:34:46;;;;;;;3.90;2.85;;;;;;;;;;10361384;28;20122;-87
2021/04/16 18:40:00;;;;;;;3.03;2.40;;;;;;;;;;10355269;28;20073;-87
2021/04/16 18:45:09;;;;;;;2.97;1.88;;;;;;;;;;10356797;28;20045;-86
2021/04/16 18:50:12;;;;;;;2.97;2.30;;;;;;;;;;10358507;28;20053;-86
2021/04/16 18:55:34;;;;;;;4.88;2.47;;;;;;;;;;10369865;28;20026;-86
2021/04/16 19:00:45;;;;;;;1.83;1.65;;;;;;;;;;10373321;28;20061;-87
2021/04/16 19:06:19;;;;;;;4.00;1.88;;;;;;;;;;10359750;28;20037;-87
2021/04/16 19:11:23;;;;;;;2.80;2.05;;;;;;;;;;10356567;28;20026;-87
2021/04/16 19:16:28;;;;;;;2.42;2.17;;;;;;;;;;10353321;28;20114;-87
2021/04/16 19:21:42;;;;;;;2.72;2.15;;;;;;;;;;10356013;28;20026;-87
2021/04/16 19:27:06;;;;;;;2.45;2.03;;;;;;;;;;10366620;28;20094;-86
2021/04/16 19:32:11;;;;;;;4.35;3.85;;;;;;;;;;10367701;28;20034;-86
2021/04/16 19:37:29;;;;;;;4.90;4.40;;;;;;;;;;10366988;28;20018;-87
2021/04/16 19:42:36;;;;;;;3.72;2.80;;;;;;;;;;10366487;28;20050;-87
2021/04/16 20:20:14;;;;;;;2.13;1.80;;;;;;;;;;10358466;28;20049;-86
2021/04/16 20:25:18;;;;;;;3.17;2.45;;;;;;;;;;10355272;28;20116;-86
2021/04/16 20:30:30;;;;;;;3.67;2.75;;;;;;;;;;10354478;28;20034;-87
2021/04/16 20:35:39;;;;;;;2.90;2.03;;;;;;;;;;10353569;28;20026;-86
2021/04/16 20:40:43;;;;;;;2.08;1.88;;;;;;;;;;10366573;28;20381;-86
2021/04/16 20:45:45;;;;;;;3.70;1.80;;;;;;;;;;10355708;28;20030;-87
2021/04/16 20:50:46;;;;;;;3.25;2.65;;;;;;;;;;10355062;28;20488;-86
2021/04/16 20:56:14;;;;;;;3.22;2.50;;;;;;;;;;10395442;23;20054;-88
2021/04/16 21:01:17;;;;;;;2.55;1.88;;;;;;;;;;10339949;28;20092;-88
2021/04/16 21:06:29;;;;;;;3.83;2.60;;;;;;;;;;10357549;28;20392;-88
2021/04/16 21:11:41;;;;;;;3.05;2.15;;;;;;;;;;10340088;28;20030;-88
2021/04/16 21:17:01;;;;;;;4.97;3.33;;;;;;;;;;10345113;28;20094;-88
2021/04/16 21:22:47;;;;;;;;;;;;;;;;;;;;;
2021/04/16 21:27:57;;;;;;;4.03;2.55;;;;;;;;;;10352812;28;20029;-88
2021/04/16 21:33:10;;;;;;;4.18;2.72;;;;;;;;;;10345619;28;20026;-88
2021/04/16 21:38:25;;;;;;;5.30;2.67;;;;;;;;;;10345788;28;20038;-88
2021/04/16 21:43:38;;;;;;;4.20;3.03;;;;;;;;;;10345773;28;20030;-88
2021/04/16 21:48:42;;;;;;;4.35;3.35;;;;;;;;;;10346293;28;20034;-88
2021/04/16 21:53:50;;;;;;;2.65;2.25;;;;;;;;;;10344049;28;20037;-88
2021/04/16 21:58:54;;;;;;;4.80;2.83;;;;;;;;;;10348535;28;20037;-88
2021/04/16 22:04:00;;;;;;;2.67;2.40;;;;;;;;;;10345589;28;20037;-88
2021/04/16 22:09:20;;;;;;;3.10;2.30;;;;;;;;;;10345234;28;20036;-88
2021/04/16 22:14:38;;;;;;;4.53;3.90;;;;;;;;;;10367174;28;20098;-88
2021/04/16 22:19:44;;;;;;;3.63;3.33;;;;;;;;;;10354882;28;20030;-88
2021/04/16 22:30:44;;;;;;;4.25;3.30;;;;;;;;;;10345203;28;20031;-88
2021/04/16 22:35:50;;;;;;;3.03;2.40;;;;;;;;;;10350380;28;20109;-88
2021/04/16 22:40:57;;;;;;;3.50;2.70;;;;;;;;;;10364919;28;20050;-88
2021/04/16 22:46:22;;;;;;;3.35;3.05;;;;;;;;;;10360495;28;20029;-88
2021/04/16 22:51:44;;;;;;;3.38;2.28;;;;;;;;;;10353567;28;20036;-88
2021/04/16 22:56:49;;;;;;;3.70;2.55;;;;;;;;;;10352079;28;20038;-88
2021/04/16 23:02:13;;;;;;;3.92;3.20;;;;;;;;;;10370662;28;20022;-88
2021/04/16 23:07:25;;;;;;;3.17;2.20;;;;;;;;;;10382017;28;20029;-88
2021/04/16 23:12:55;;;;;;;;;;;;;;;;;;;;;
2021/04/16 23:18:05;;;;;;;4.00;3.40;;;;;;;;;;10366966;28;20476;-88
2021/04/16 23:23:25;;;;;;;2.92;2.63;;;;;;;;;;10351176;28;20448;-88
2021/04/16 23:28:38;;;;;;;5.53;4.20;;;;;;;;;;10377854;28;20026;-88
2021/04/16 23:33:58;;;;;;;2.97;2.67;;;;;;;;;;10379829;28;20042;-87
2021/04/16 23:39:03;;;;;;;4.68;3.45;;;;;;;;;;10361238;28;20046;-88
2021/04/16 23:44:14;;;;;;;7.03;4.43;;;;;;;;;;10351051;28;20057;-88
2021/04/16 23:49:17;;;;;;;3.40;3.00;;;;;;;;;;10349063;28;20085;-88
2021/04/16 23:54:18;;;;;;;4.32;2.40;;;;;;;;;;10353024;28;20053;-88
2021/04/16 23:59:19;;;;;;;2.80;2.38;;;;;;;;;;10346794;28;20038;-88
